createdAt,value
2023-09-13T00:04:08.434Z,24.25
2023-09-13T00:09:12.715Z,24.32
2023-09-13T00:14:15.934Z,24.16
2023-09-13T00:19:19.044Z,24.16
2023-09-13T00:24:23.211Z,24.02
2023-09-13T00:29:25.988Z,24.14
2023-09-13T00:34:29.026Z,23.99
2023-09-13T00:39:33.270Z,24.26
2023-09-13T00:44:36.051Z,24.39
2023-09-13T00:49:39.325Z,24.22
2023-09-13T00:54:43.741Z,24.02
2023-09-13T00:59:46.615Z,23.72
2023-09-13T01:04:49.710Z,23.87
2023-09-13T01:09:54.200Z,23.85
2023-09-13T01:14:57.134Z,23.88
2023-09-13T01:20:08.595Z,23.52
2023-09-13T01:25:33.644Z,23.52
2023-09-13T01:30:39.500Z,22.88
2023-09-13T01:35:42.394Z,23.01
2023-09-13T01:40:46.908Z,23.16
2023-09-13T01:45:52.442Z,23.05
2023-09-13T01:50:55.604Z,22.63
2023-09-13T01:55:58.540Z,22.78
2023-09-13T02:01:03.256Z,22.88
2023-09-13T02:06:06.710Z,22.57
2023-09-13T02:11:09.673Z,22.40
2023-09-13T02:16:21.338Z,21.82
2023-09-13T02:21:24.244Z,22.32
2023-09-13T02:26:56.158Z,22.34
2023-09-13T02:32:00.488Z,22.27
2023-09-13T02:37:03.582Z,22.31
2023-09-13T02:42:08.158Z,22.63
2023-09-13T02:47:12.387Z,22.45
2023-09-13T02:52:15.523Z,22.03
2023-09-13T02:57:18.381Z,22.22
2023-09-13T03:02:22.628Z,21.93
2023-09-13T03:07:25.737Z,21.81
2023-09-13T03:12:29.298Z,21.48
2023-09-13T03:17:33.696Z,21.91
2023-09-13T03:22:36.600Z,21.68
2023-09-13T03:27:39.533Z,22.42
2023-09-13T03:32:43.906Z,21.84
2023-09-13T03:37:46.753Z,21.52
2023-09-13T03:42:49.788Z,21.34
2023-09-13T03:47:54.337Z,21.16
2023-09-13T03:52:57.215Z,25.27
2023-09-13T03:58:00.112Z,22.20
2023-09-13T04:03:04.787Z,22.20
2023-09-13T04:08:08.389Z,21.88
2023-09-13T04:13:11.201Z,21.34
2023-09-13T04:18:15.481Z,21.39
2023-09-13T04:23:18.449Z,21.10
2023-09-13T04:28:21.648Z,20.63
2023-09-13T04:33:53.386Z,21.22
2023-09-13T04:39:03.483Z,22.63
2023-09-13T04:44:07.132Z,21.29
2023-09-13T04:49:11.498Z,21.58
2023-09-13T04:54:14.401Z,21.42
2023-09-13T04:59:17.636Z,21.05
2023-09-13T05:04:22.034Z,20.76
2023-09-13T05:09:24.950Z,21.08
2023-09-13T05:14:29.494Z,20.63
2023-09-13T05:19:33.763Z,20.35
2023-09-13T05:24:36.633Z,20.66
2023-09-13T05:29:39.420Z,20.48
2023-09-13T05:34:43.659Z,20.28
2023-09-13T05:39:46.485Z,22.80
2023-09-13T05:44:49.322Z,23.00
2023-09-13T05:49:53.499Z,22.07
2023-09-13T05:54:56.463Z,23.35
2023-09-13T05:59:59.265Z,22.92
2023-09-13T06:05:05.644Z,23.11
2023-09-13T06:10:12.278Z,22.62
2023-09-13T06:15:15.237Z,21.89
2023-09-13T06:20:19.678Z,22.57
2023-09-13T06:25:22.600Z,21.68
2023-09-13T06:30:25.653Z,22.28
2023-09-13T06:35:30.136Z,21.11
2023-09-13T06:40:36.329Z,21.73
2023-09-13T06:45:55.966Z,20.89
2023-09-13T06:56:12.076Z,20.98
2023-09-13T07:06:24.068Z,20.14
2023-09-13T07:11:27.399Z,20.05
2023-09-13T07:16:30.593Z,19.69
2023-09-13T07:21:34.838Z,19.97
2023-09-13T07:26:37.643Z,19.88
2023-09-13T07:31:40.523Z,20.37
2023-09-13T07:36:44.761Z,20.58
2023-09-13T07:41:47.548Z,20.98
2023-09-13T07:46:50.532Z,21.23
2023-09-13T07:51:54.859Z,20.95
2023-09-13T07:56:57.638Z,21.31
2023-09-13T08:02:00.833Z,21.58
2023-09-13T08:07:05.448Z,21.02
2023-09-13T08:12:08.975Z,21.29
2023-09-13T08:17:11.880Z,21.39
2023-09-13T08:22:20.115Z,21.70
2023-09-13T08:27:32.539Z,21.69
2023-09-13T08:32:35.388Z,21.58
2023-09-13T08:37:39.557Z,21.35
2023-09-13T08:42:43.588Z,20.96
2023-09-13T08:47:58.165Z,21.69
2023-09-13T08:53:05.362Z,21.22
2023-09-13T08:58:08.141Z,21.01
2023-09-13T09:03:14.892Z,21.36
2023-09-13T09:08:20.338Z,21.15
2023-09-13T09:13:26.746Z,21.03
2023-09-13T09:18:32.424Z,20.99
2023-09-13T09:23:39.246Z,21.24
2023-09-13T09:28:43.356Z,21.61
2023-09-13T09:33:47.710Z,22.02
2023-09-13T09:38:56.080Z,22.12
2023-09-13T09:43:59.234Z,22.11
2023-09-13T09:49:02.896Z,22.28
2023-09-13T09:54:07.428Z,22.43
2023-09-13T09:59:10.274Z,21.99
2023-09-13T10:04:13.914Z,22.37
2023-09-13T10:09:18.107Z,21.87
2023-09-13T10:14:27.890Z,22.11
2023-09-13T10:19:32.156Z,22.06
2023-09-13T10:24:42.049Z,21.62
2023-09-13T10:29:48.055Z,21.91
2023-09-13T10:34:54.740Z,21.97
2023-09-13T10:40:11.210Z,21.89
2023-09-13T10:45:18.648Z,22.56
2023-09-13T10:50:22.063Z,22.57
2023-09-13T10:55:27.826Z,23.05
2023-09-13T11:00:33.487Z,22.64
2023-09-13T11:05:36.863Z,22.44
2023-09-13T11:10:41.188Z,23.32
2023-09-13T11:15:50.931Z,23.16
2023-09-13T11:20:55.047Z,23.18
2023-09-13T11:26:05.488Z,22.80
2023-09-13T11:31:11.299Z,22.44
2023-09-13T11:36:18.153Z,22.65
2023-09-13T11:41:22.732Z,23.33
2023-09-13T11:46:28.185Z,23.37
2023-09-13T11:56:47.121Z,23.27
2023-09-13T12:01:56.784Z,22.99
2023-09-13T12:07:03.924Z,23.28
2023-09-13T12:12:12.450Z,22.52
2023-09-13T12:17:20.819Z,22.54
2023-09-13T12:22:23.981Z,22.13
2023-09-13T12:27:34.010Z,20.93
2023-09-13T12:32:36.943Z,21.97
2023-09-13T12:37:39.901Z,22.64
2023-09-13T12:42:44.490Z,22.60
2023-09-13T12:47:47.552Z,22.69
2023-09-13T12:52:52.618Z,22.29
2023-09-13T12:58:05.459Z,21.42
2023-09-13T13:03:08.399Z,21.24
2023-09-13T13:08:11.425Z,21.66
2023-09-13T13:13:15.668Z,21.71
2023-09-13T13:18:18.549Z,21.90
2023-09-13T13:23:21.381Z,22.68
2023-09-13T13:28:25.789Z,23.16
2023-09-13T13:33:28.719Z,23.08
2023-09-13T13:38:31.761Z,22.62
2023-09-13T13:43:36.777Z,22.49
2023-09-13T13:48:39.868Z,22.45
2023-09-13T13:53:43.232Z,23.48
2023-09-13T13:58:47.724Z,23.45
2023-09-13T14:03:50.707Z,23.06
2023-09-13T14:08:53.779Z,23.25
2023-09-13T14:13:57.919Z,22.95
2023-09-13T14:19:00.987Z,22.74
2023-09-13T14:24:05.694Z,22.37
2023-09-13T14:29:10.284Z,23.29
2023-09-13T14:34:13.111Z,23.53
2023-09-13T14:39:17.823Z,22.41
2023-09-13T14:44:21.995Z,22.85
2023-09-13T14:49:27.321Z,23.27
2023-09-13T14:54:30.300Z,22.99
2023-09-13T14:59:34.504Z,22.21
2023-09-13T15:04:37.325Z,21.77
2023-09-13T15:09:40.215Z,22.03
2023-09-13T15:14:44.411Z,21.96
2023-09-13T15:19:47.288Z,22.03
2023-09-13T15:24:50.670Z,21.95
2023-09-13T15:29:54.862Z,21.84
2023-09-13T15:34:58.144Z,21.58
2023-09-13T15:40:08.410Z,21.85
2023-09-13T15:45:13.169Z,22.21
2023-09-13T15:50:16.003Z,22.32
2023-09-13T15:55:18.889Z,22.17
2023-09-13T16:00:23.179Z,21.90
2023-09-13T16:05:26.129Z,22.03
2023-09-13T16:10:29.116Z,21.44
2023-09-13T16:15:34.382Z,22.05
2023-09-13T16:20:38.481Z,21.85
2023-09-13T16:25:41.355Z,21.82
2023-09-13T16:30:46.119Z,21.76
2023-09-13T16:35:49.050Z,21.66
2023-09-13T16:40:51.849Z,22.02
2023-09-13T16:50:58.731Z,21.81
2023-09-13T16:56:01.596Z,21.63
2023-09-13T17:01:05.820Z,21.76
2023-09-13T17:06:09.564Z,21.86
2023-09-13T17:11:14.286Z,21.53
2023-09-13T17:16:18.721Z,21.46
2023-09-13T17:21:21.540Z,21.30
2023-09-13T17:26:24.375Z,21.15
2023-09-13T17:31:30.441Z,21.26
2023-09-13T17:36:41.945Z,21.08
2023-09-13T17:41:45.429Z,20.74
2023-09-13T17:46:49.830Z,20.87
2023-09-13T17:51:52.730Z,20.88
2023-09-13T17:56:55.810Z,20.76
2023-09-13T18:02:00.160Z,20.86
2023-09-13T18:07:03.543Z,20.38
2023-09-13T18:12:08.048Z,20.35
2023-09-13T18:17:12.725Z,20.39
2023-09-13T18:22:15.629Z,20.22
2023-09-13T18:27:18.689Z,19.98
2023-09-13T18:32:22.864Z,20.15
2023-09-13T18:37:25.725Z,19.84
2023-09-13T18:42:32.744Z,20.15
2023-09-13T18:47:37.216Z,20.02
2023-09-13T18:52:40.110Z,19.71
2023-09-13T18:57:43.306Z,19.68
2023-09-13T19:02:50.562Z,19.61
2023-09-13T19:07:53.652Z,19.55
2023-09-13T19:12:56.585Z,19.59
2023-09-13T19:18:00.996Z,19.44
2023-09-13T19:23:04.024Z,19.32
2023-09-13T19:28:08.973Z,19.43
2023-09-13T19:33:13.546Z,19.35
2023-09-13T19:38:28.915Z,19.28
2023-09-13T19:43:36.075Z,19.01
2023-09-13T19:48:41.749Z,19.23
2023-09-13T19:53:47.190Z,19.00
2023-09-13T19:58:51.010Z,18.96
2023-09-13T20:03:55.651Z,18.84
2023-09-13T20:08:59.448Z,18.91
2023-09-13T20:14:02.882Z,18.89
2023-09-13T20:19:07.085Z,18.59
2023-09-13T20:24:10.296Z,18.56
2023-09-13T20:29:13.111Z,18.55
2023-09-13T20:34:19.782Z,18.56
2023-09-13T20:39:22.648Z,18.61
2023-09-13T20:44:25.866Z,18.61
2023-09-13T20:49:30.029Z,18.34
2023-09-13T20:54:32.930Z,18.48
2023-09-13T20:59:35.732Z,18.32
2023-09-13T21:04:40.176Z,18.41
2023-09-13T21:09:43.048Z,18.13
2023-09-13T21:14:45.896Z,18.30
2023-09-13T21:19:50.057Z,18.22
2023-09-13T21:24:53.712Z,17.86
2023-09-13T21:29:56.522Z,18.10
2023-09-13T21:35:02.815Z,18.08
2023-09-13T21:40:07.729Z,17.82
2023-09-13T21:45:11.363Z,17.90
2023-09-13T21:50:15.702Z,17.76
2023-09-13T21:55:18.694Z,17.55
2023-09-13T22:00:22.358Z,17.56
2023-09-13T22:05:26.903Z,17.51
2023-09-13T22:10:30.069Z,17.44
2023-09-13T22:15:33.043Z,17.37
2023-09-13T22:20:38.702Z,17.33
2023-09-13T22:25:41.790Z,17.28
2023-09-13T22:30:44.851Z,16.94
2023-09-13T22:35:49.209Z,16.72
2023-09-13T22:40:52.622Z,16.72
2023-09-13T22:45:55.778Z,16.77
2023-09-13T22:51:00.521Z,16.47
2023-09-13T22:56:03.555Z,16.56
2023-09-13T23:01:10.634Z,17.25
2023-09-13T23:06:15.620Z,17.04
2023-09-13T23:11:18.628Z,17.08
2023-09-13T23:16:21.966Z,16.62
2023-09-13T23:21:26.263Z,16.61
2023-09-13T23:26:30.221Z,16.57
2023-09-13T23:31:35.216Z,16.46
2023-09-13T23:36:39.480Z,16.37
2023-09-13T23:41:42.289Z,16.43
2023-09-13T23:46:45.236Z,16.44
2023-09-13T23:51:49.548Z,16.29
2023-09-13T23:56:52.358Z,16.26
